Camellia — VRCP9 — position and weather

sailwx.info

Track history (hours):
 
Tides and Currents Weather Stations Pressure Air Temp Water Temp Dewpoint Dewpoint Depression Visibility Wind Speed Wind Dir Waves Ship Positions

Camellia

Last reported at 2014-Sep-30 17:32 UTC. Time now 2014-Oct-01 16:19 UTC.
Position N 44°00' E 033°57'.

Length 222 m; draft 8.6 m.

Type: Ship (hazmat cat C). MMSI: 477791900.

Date/timePositionNaut miles runAvg speedWind from/ knotsBaromVisibWave heightAir tempDewpointWater temp
2014-Sep-30 17:32N 44°00' E 033°57'1211.5
2014-Sep-30 16:30N 43°60' E 034°13'1010.9
2014-Sep-30 15:33N 43°60' E 034°28'1111.1
2014-Sep-30 14:33N 43°60' E 034°43'1111.3
2014-Sep-30 13:33N 44°00' E 034°59'1311.6
2014-Sep-30 12:26N 44°00' E 035°17'1011.5
2014-Sep-30 11:33N 44°00' E 035°31'6616.4
2014-Sep-30 07:33N 44°19' E 036°58'2221.9
2014-Sep-30 06:33N 44°29' E 037°26'2019.9
2014-Sep-30 05:33N 44°39' E 037°50'5 4.7
2014-Sep-30 04:32N 44°43' E 037°49'0 0.1
2014-Sep-30 03:32N 44°43' E 037°49'0 0.0
2014-Sep-30 02:32N 44°43' E 037°49'0 0.0
2014-Sep-30 01:32N 44°43' E 037°49'0 0.0
2014-Sep-30 00:32N 44°43' E 037°49'0 0.0
2014-Sep-29 23:32N 44°43' E 037°49'0 0.0
2014-Sep-29 22:32N 44°43' E 037°49'0 0.0
2014-Sep-29 21:32N 44°43' E 037°49'0 0.0
2014-Sep-29 20:32N 44°43' E 037°49'0 0.0
2014-Sep-29 19:32N 44°43' E 037°49'0 0.0
2014-Sep-29 18:32N 44°43' E 037°49'0 0.0
2014-Sep-29 17:31N 44°43' E 037°49'0 0.0
2014-Sep-29 16:31N 44°43' E 037°49'0 0.0
2014-Sep-29 15:31N 44°43' E 037°49'0 0.0
2014-Sep-29 14:31N 44°43' E 037°49'0 0.0
2014-Sep-29 13:31N 44°43' E 037°49'0 0.0
2014-Sep-29 12:31N 44°43' E 037°49'0 0.0
2014-Sep-29 11:31N 44°43' E 037°49'0 0.0
2014-Sep-29 10:31N 44°43' E 037°49'0 0.0
2014-Sep-29 09:31N 44°43' E 037°49'0 0.0
2014-Sep-29 08:31N 44°43' E 037°49'2 1.6
2014-Sep-29 07:33N 44°42' E 037°49'0 0.4
2014-Sep-29 06:33N 44°41' E 037°49'5 5.1
2014-Sep-29 05:33N 44°37' E 037°52'4 3.6
2014-Sep-29 04:33N 44°33' E 037°51'1212.4
2014-Sep-29 03:33N 44°21' E 037°51'4 2.5
2014-Sep-29 02:04N 44°20' E 037°56'9 5.7
2014-Sep-29 00:33N 44°20' E 037°45'1 0.6
2014-Sep-28 22:31N 44°21' E 037°46'3 2.7
2014-Sep-28 21:16N 44°21' E 037°51'2 2.6
2014-Sep-28 20:32N 44°21' E 037°53'1 0.9
2014-Sep-28 19:08N 44°20' E 037°52'4 7.0
2014-Sep-28 18:33N 44°19' E 037°47'1 0.6
2014-Sep-28 17:19N 44°19' E 037°46'1 1.3
2014-Sep-28 16:30N 44°19' E 037°47'10 7.4
2014-Sep-28 15:08N 44°16' E 037°33'5 1.8
2014-Sep-28 12:33N 44°17' E 037°40'3 2.6
2014-Sep-28 11:26N 44°17' E 037°44'1 1.5
2014-Sep-28 10:33N 44°17' E 037°46'8 7.2
2014-Sep-28 09:31N 44°17' E 037°35'1 0.6
2014-Sep-28 08:17N 44°18' E 037°35'1 1.6
2014-Sep-28 07:33N 44°18' E 037°36'2 1.5
2014-Sep-28 06:22N 44°18' E 037°39'2 1.9
2014-Sep-28 05:16N 44°19' E 037°42'2 2.4
2014-Sep-28 04:31N 44°19' E 037°44'5 5.2
2014-Sep-28 03:33N 44°20' E 037°37'2 1.5
2014-Sep-28 02:12N 44°22' E 037°37'1 1.8
2014-Sep-28 01:21N 44°23' E 037°39'1 1.3
2014-Sep-28 00:26N 44°23' E 037°40'1 1.2
2014-Sep-27 23:30N 44°23' E 037°42'2 1.5
2014-Sep-27 22:22N 44°22' E 037°44'1 1.0
2014-Sep-27 21:33N 44°22' E 037°45'8 7.3
2014-Sep-27 20:28N 44°17' E 037°36'2 0.6
2014-Sep-27 16:18N 44°17' E 037°39'1 1.6
2014-Sep-27 15:33N 44°18' E 037°40'2 1.5
2014-Sep-27 14:33N 44°19' E 037°42'1 1.1
2014-Sep-27 13:32N 44°20' E 037°43'1 1.1
2014-Sep-27 12:33N 44°20' E 037°44'0 0.5
2014-Sep-27 11:33N 44°20' E 037°45'5 5.4
2014-Sep-27 10:33N 44°23' E 037°39'4 3.7
2014-Sep-27 09:33N 44°25' E 037°34'1 1.4
2014-Sep-27 08:34N 44°24' E 037°36'3 1.6
2014-Sep-27 06:32N 44°22' E 037°39'2 2.0
2014-Sep-27 05:29N 44°21' E 037°41'2 1.6
2014-Sep-27 04:29N 44°19' E 037°43'1 1.3
2014-Sep-27 03:33N 44°19' E 037°44'8 5.6
2014-Sep-27 02:04N 44°22' E 037°33'0 0.7
2014-Sep-27 01:25N 44°22' E 037°34'7 1.6
2014-Sep-26 21:04N 44°20' E 037°43'0 0.8
2014-Sep-26 20:28N 44°19' E 037°43'1 0.7
2014-Sep-26 19:33N 44°19' E 037°44'11 5.6
2014-Sep-26 17:33N 44°24' E 037°30'1 0.5
2014-Sep-26 16:13N 44°24' E 037°29'1 2.1
2014-Sep-26 15:33N 44°24' E 037°31'2 2.0
2014-Sep-26 14:33N 44°23' E 037°34'3 2.1
2014-Sep-26 13:19N 44°22' E 037°37'2 2.1
2014-Sep-26 12:30N 44°22' E 037°39'2 2.0
2014-Sep-26 11:33N 44°22' E 037°42'2 1.6
2014-Sep-26 10:34N 44°21' E 037°44'8 7.7
2014-Sep-26 09:33N 44°13' E 037°44'12 9.8
2014-Sep-26 08:22N 44°02' E 037°46'  
2014-Sep-21 00:14N 41°02' E 029°00'  
Track history (hours):
 
Tides and Currents Weather Stations Pressure Air Temp Water Temp Dewpoint Dewpoint Depression Visibility Wind Speed Wind Dir Waves Ship Positions

Camellia

Last reported at 2014-Sep-30 17:32 UTC. Time now 2014-Oct-01 16:19 UTC.
Position N 44°00' E 033°57'.

Length 222 m; draft 8.6 m.

Type: Ship (hazmat cat C). MMSI: 477791900.

Date/timePositionNaut miles runAvg speedWind from/ knotsBaromVisibWave heightAir tempDewpointWater temp
2014-Sep-30 17:32N 44°00' E 033°57'1211.5
2014-Sep-30 16:30N 43°60' E 034°13'1010.9
2014-Sep-30 15:33N 43°60' E 034°28'1111.1
2014-Sep-30 14:33N 43°60' E 034°43'1111.3
2014-Sep-30 13:33N 44°00' E 034°59'1311.6
2014-Sep-30 12:26N 44°00' E 035°17'1011.5
2014-Sep-30 11:33N 44°00' E 035°31'6616.4
2014-Sep-30 07:33N 44°19' E 036°58'2221.9
2014-Sep-30 06:33N 44°29' E 037°26'2019.9
2014-Sep-30 05:33N 44°39' E 037°50'5 4.7
2014-Sep-30 04:32N 44°43' E 037°49'0 0.1
2014-Sep-30 03:32N 44°43' E 037°49'0 0.0
2014-Sep-30 02:32N 44°43' E 037°49'0 0.0
2014-Sep-30 01:32N 44°43' E 037°49'0 0.0
2014-Sep-30 00:32N 44°43' E 037°49'0 0.0
2014-Sep-29 23:32N 44°43' E 037°49'0 0.0
2014-Sep-29 22:32N 44°43' E 037°49'0 0.0
2014-Sep-29 21:32N 44°43' E 037°49'0 0.0
2014-Sep-29 20:32N 44°43' E 037°49'0 0.0
2014-Sep-29 19:32N 44°43' E 037°49'0 0.0
2014-Sep-29 18:32N 44°43' E 037°49'0 0.0
2014-Sep-29 17:31N 44°43' E 037°49'0 0.0
2014-Sep-29 16:31N 44°43' E 037°49'0 0.0
2014-Sep-29 15:31N 44°43' E 037°49'0 0.0
2014-Sep-29 14:31N 44°43' E 037°49'0 0.0
2014-Sep-29 13:31N 44°43' E 037°49'0 0.0
2014-Sep-29 12:31N 44°43' E 037°49'0 0.0
2014-Sep-29 11:31N 44°43' E 037°49'0 0.0
2014-Sep-29 10:31N 44°43' E 037°49'0 0.0
2014-Sep-29 09:31N 44°43' E 037°49'0 0.0
2014-Sep-29 08:31N 44°43' E 037°49'2 1.6
2014-Sep-29 07:33N 44°42' E 037°49'0 0.4
2014-Sep-29 06:33N 44°41' E 037°49'5 5.1
2014-Sep-29 05:33N 44°37' E 037°52'4 3.6
2014-Sep-29 04:33N 44°33' E 037°51'1212.4
2014-Sep-29 03:33N 44°21' E 037°51'4 2.5
2014-Sep-29 02:04N 44°20' E 037°56'9 5.7
2014-Sep-29 00:33N 44°20' E 037°45'1 0.6
2014-Sep-28 22:31N 44°21' E 037°46'3 2.7
2014-Sep-28 21:16N 44°21' E 037°51'2 2.6
2014-Sep-28 20:32N 44°21' E 037°53'1 0.9
2014-Sep-28 19:08N 44°20' E 037°52'4 7.0
2014-Sep-28 18:33N 44°19' E 037°47'1 0.6
2014-Sep-28 17:19N 44°19' E 037°46'1 1.3
2014-Sep-28 16:30N 44°19' E 037°47'10 7.4
2014-Sep-28 15:08N 44°16' E 037°33'5 1.8
2014-Sep-28 12:33N 44°17' E 037°40'3 2.6
2014-Sep-28 11:26N 44°17' E 037°44'1 1.5
2014-Sep-28 10:33N 44°17' E 037°46'8 7.2
2014-Sep-28 09:31N 44°17' E 037°35'1 0.6
2014-Sep-28 08:17N 44°18' E 037°35'1 1.6
2014-Sep-28 07:33N 44°18' E 037°36'2 1.5
2014-Sep-28 06:22N 44°18' E 037°39'2 1.9
2014-Sep-28 05:16N 44°19' E 037°42'2 2.4
2014-Sep-28 04:31N 44°19' E 037°44'5 5.2
2014-Sep-28 03:33N 44°20' E 037°37'2 1.5
2014-Sep-28 02:12N 44°22' E 037°37'1 1.8
2014-Sep-28 01:21N 44°23' E 037°39'1 1.3
2014-Sep-28 00:26N 44°23' E 037°40'1 1.2
2014-Sep-27 23:30N 44°23' E 037°42'2 1.5
2014-Sep-27 22:22N 44°22' E 037°44'1 1.0
2014-Sep-27 21:33N 44°22' E 037°45'8 7.3
2014-Sep-27 20:28N 44°17' E 037°36'2 0.6
2014-Sep-27 16:18N 44°17' E 037°39'1 1.6
2014-Sep-27 15:33N 44°18' E 037°40'2 1.5
2014-Sep-27 14:33N 44°19' E 037°42'1 1.1
2014-Sep-27 13:32N 44°20' E 037°43'1 1.1
2014-Sep-27 12:33N 44°20' E 037°44'0 0.5
2014-Sep-27 11:33N 44°20' E 037°45'5 5.4
2014-Sep-27 10:33N 44°23' E 037°39'4 3.7
2014-Sep-27 09:33N 44°25' E 037°34'1 1.4
2014-Sep-27 08:34N 44°24' E 037°36'3 1.6
2014-Sep-27 06:32N 44°22' E 037°39'2 2.0
2014-Sep-27 05:29N 44°21' E 037°41'2 1.6
2014-Sep-27 04:29N 44°19' E 037°43'1 1.3
2014-Sep-27 03:33N 44°19' E 037°44'8 5.6
2014-Sep-27 02:04N 44°22' E 037°33'0 0.7
2014-Sep-27 01:25N 44°22' E 037°34'7 1.6
2014-Sep-26 21:04N 44°20' E 037°43'0 0.8
2014-Sep-26 20:28N 44°19' E 037°43'1 0.7
2014-Sep-26 19:33N 44°19' E 037°44'11 5.6
2014-Sep-26 17:33N 44°24' E 037°30'1 0.5
2014-Sep-26 16:13N 44°24' E 037°29'1 2.1
2014-Sep-26 15:33N 44°24' E 037°31'2 2.0
2014-Sep-26 14:33N 44°23' E 037°34'3 2.1
2014-Sep-26 13:19N 44°22' E 037°37'2 2.1
2014-Sep-26 12:30N 44°22' E 037°39'2 2.0
2014-Sep-26 11:33N 44°22' E 037°42'2 1.6
2014-Sep-26 10:34N 44°21' E 037°44'8 7.7
2014-Sep-26 09:33N 44°13' E 037°44'12 9.8
2014-Sep-26 08:22N 44°02' E 037°46'  
2014-Sep-21 00:14N 41°02' E 029°00'  

Dump ship's entire track history